シドニー の空港の天気 - METARとTAF

シドニー国際空港 ( YSSY / SYD ) - オーストラリア ニューサウスウェールズ州、Mascot
飛行場実況気象(Metar)
観測時間11/22 23:30 AEDT (11/22 12:30 UTC)
風向・風速北北東 3m/s
視程10km以上
天気現象
全天の4割程度の雲 雲底高度 910m
気温20℃
湿度73%
気圧1018hPa
METARYSSY 221230Z 03005KT 9999 SCT030 20/15 Q1018 NOSIG
過去の天気等 Google飛行場航空写真 Wunderground天気予報

過去48時間のMETAR

飛行場予報(TAF)
発表時間: 11/22 22:04 AEDT (11/22 11:04 UTC)
予報対象時間: 22日23時 AEDT ~ 24日5時 AEDT
風向・風速北東 4m/s
視程10km以上
全天の4割程度の雲 雲底高度 760m
23日0時 AEDT から
風向・風速北北西 3m/s
視程10km以上
天気現象弱いしゅう雨
少しの雲 雲底高度 460m
全天の8割程度の雲 雲底高度 760m
23日10時 AEDT から
風向・風速北東 8m/s
視程10km以上
少しの雲 雲底高度 1,070m
23日21時 AEDT から
風向・風速北 5m/s
視程10km以上
少しの雲 雲底高度 760m
TAF YSSY 221104Z 2212/2318 05008KT 9999 SCT025
FM221300 34005KT 9999 -SHRA FEW015 BKN025
FM222300 04015KT 9999 FEW035
FM231000 01010KT 9999 FEW025 INTER 2213/2223 5000 SHRA BKN015